createdAt,value
2022-11-30T00:00:06.975Z,5.50
2022-11-30T00:00:16.438Z,5.60
2022-11-30T00:00:25.845Z,5.60
2022-11-30T00:00:35.372Z,5.60
2022-11-30T00:00:44.727Z,5.60
2022-11-30T00:00:54.152Z,5.60
2022-11-30T00:01:03.565Z,5.60
2022-11-30T00:01:12.974Z,5.50
2022-11-30T00:01:22.432Z,5.60
2022-11-30T00:01:31.833Z,5.60
2022-11-30T00:01:41.258Z,5.60
2022-11-30T00:01:50.702Z,5.60
2022-11-30T00:02:09.591Z,5.50
2022-11-30T00:02:19.095Z,5.60
2022-11-30T00:02:28.445Z,5.60
2022-11-30T00:02:37.979Z,5.60
2022-11-30T00:02:47.407Z,5.60
2022-11-30T00:02:56.740Z,5.60
2022-11-30T00:03:06.386Z,5.60
2022-11-30T00:03:15.833Z,5.60
2022-11-30T00:03:25.270Z,5.60
2022-11-30T00:03:34.630Z,5.60
2022-11-30T00:03:44.073Z,5.60
2022-11-30T00:03:53.511Z,5.60
2022-11-30T00:04:02.942Z,5.60
2022-11-30T00:04:12.367Z,5.60
2022-11-30T00:04:21.789Z,5.60
2022-11-30T00:04:31.221Z,5.60
2022-11-30T00:04:40.637Z,5.50
2022-11-30T00:04:59.477Z,5.60
2022-11-30T00:05:08.901Z,5.60
2022-11-30T00:05:18.334Z,5.60
2022-11-30T00:05:27.723Z,5.60
2022-11-30T00:05:37.139Z,5.50
2022-11-30T00:05:46.685Z,5.60
2022-11-30T00:05:56.114Z,5.60
2022-11-30T00:06:05.535Z,5.60
2022-11-30T00:06:14.959Z,5.50
2022-11-30T00:06:24.425Z,5.60
2022-11-30T00:06:33.876Z,5.50
2022-11-30T00:06:43.300Z,5.50
2022-11-30T00:06:52.754Z,5.60
2022-11-30T00:07:02.159Z,5.40
2022-11-30T00:07:11.709Z,5.60
2022-11-30T00:07:21.160Z,5.50
2022-11-30T00:07:30.593Z,5.60
2022-11-30T00:07:49.514Z,5.50
2022-11-30T00:07:59.061Z,5.60
2022-11-30T00:08:08.395Z,5.50
2022-11-30T00:08:17.821Z,5.50
2022-11-30T00:08:27.300Z,5.50
2022-11-30T00:08:36.724Z,5.60
2022-11-30T00:08:46.169Z,5.60
2022-11-30T00:08:55.639Z,5.60
2022-11-30T00:09:05.063Z,5.60
2022-11-30T00:09:14.469Z,5.60
2022-11-30T00:09:23.884Z,5.60
2022-11-30T00:09:33.303Z,5.60
2022-11-30T00:09:42.770Z,5.60
2022-11-30T00:09:52.193Z,5.60
2022-11-30T00:10:01.607Z,5.60
2022-11-30T00:10:11.038Z,5.60
2022-11-30T00:10:20.478Z,5.60
2022-11-30T00:10:39.445Z,5.60
2022-11-30T00:10:48.782Z,5.60
2022-11-30T00:10:58.208Z,5.60
2022-11-30T00:11:07.604Z,5.60
2022-11-30T00:11:17.074Z,5.60
2022-11-30T00:11:26.540Z,5.60
2022-11-30T00:11:36.157Z,5.60
2022-11-30T00:11:45.605Z,5.60
2022-11-30T00:11:55.026Z,5.60
2022-11-30T00:12:04.549Z,5.60
2022-11-30T00:12:13.965Z,5.60
2022-11-30T00:12:23.564Z,5.60
2022-11-30T00:12:32.989Z,5.60
2022-11-30T00:12:42.533Z,5.60
2022-11-30T00:12:51.910Z,5.60
2022-11-30T00:13:01.339Z,5.60
2022-11-30T00:13:10.817Z,5.60
2022-11-30T00:13:20.216Z,5.60
2022-11-30T00:13:39.077Z,5.60
2022-11-30T00:13:48.520Z,5.60
2022-11-30T00:13:57.986Z,5.60
2022-11-30T00:14:07.435Z,5.60
2022-11-30T00:14:16.887Z,5.60
2022-11-30T00:14:26.305Z,5.60
2022-11-30T00:14:35.745Z,5.60
2022-11-30T00:14:45.584Z,5.60
2022-11-30T00:14:54.577Z,5.60
2022-11-30T00:15:03.989Z,5.60
2022-11-30T00:15:13.411Z,5.60
2022-11-30T00:15:22.878Z,5.60
2022-11-30T00:15:32.304Z,5.60
2022-11-30T00:15:41.743Z,5.60
2022-11-30T00:15:51.172Z,5.60
2022-11-30T00:16:00.636Z,5.50
2022-11-30T00:16:19.616Z,5.60
2022-11-30T00:16:29.060Z,5.50
2022-11-30T00:16:38.382Z,5.60
2022-11-30T00:16:47.871Z,5.60
2022-11-30T00:16:57.221Z,5.50
2022-11-30T00:17:06.720Z,5.60
2022-11-30T00:17:16.057Z,5.60
2022-11-30T00:17:25.491Z,5.60
2022-11-30T00:17:34.893Z,5.60
2022-11-30T00:17:44.300Z,5.50
2022-11-30T00:17:53.739Z,5.60
2022-11-30T00:18:03.149Z,5.60
2022-11-30T00:18:12.651Z,5.60
2022-11-30T00:18:22.239Z,5.60
2022-11-30T00:18:31.662Z,5.60
2022-11-30T00:18:41.083Z,5.60
2022-11-30T00:18:50.510Z,5.60
2022-11-30T00:19:09.410Z,5.60
2022-11-30T00:19:18.851Z,5.60
2022-11-30T00:19:28.285Z,5.60
2022-11-30T00:19:37.707Z,5.60
2022-11-30T00:19:47.165Z,5.60
2022-11-30T00:19:56.612Z,5.60
2022-11-30T00:20:06.035Z,5.60
2022-11-30T00:20:15.465Z,5.60
2022-11-30T00:20:24.863Z,5.60
2022-11-30T00:20:34.291Z,5.60
2022-11-30T00:20:43.747Z,5.70
2022-11-30T00:20:53.179Z,5.70
2022-11-30T00:21:02.593Z,5.70
2022-11-30T00:21:12.035Z,5.70
2022-11-30T00:21:21.447Z,5.70
2022-11-30T00:21:30.864Z,5.70
2022-11-30T00:21:40.430Z,5.70
2022-11-30T00:21:59.277Z,5.60
2022-11-30T00:22:08.717Z,5.70
2022-11-30T00:22:18.128Z,5.70
2022-11-30T00:22:27.575Z,5.70
2022-11-30T00:22:36.993Z,5.70
2022-11-30T00:22:46.429Z,5.70
2022-11-30T00:22:55.858Z,5.70
2022-11-30T00:23:05.284Z,5.70
2022-11-30T00:23:14.743Z,5.70
2022-11-30T00:23:24.167Z,5.80
2022-11-30T00:23:33.576Z,5.80
2022-11-30T00:23:42.998Z,5.80
2022-11-30T00:23:52.419Z,5.80
2022-11-30T00:24:01.826Z,5.80
2022-11-30T00:24:11.256Z,5.80
2022-11-30T00:24:20.689Z,5.80
2022-11-30T00:24:39.507Z,5.80
2022-11-30T00:24:49.258Z,5.80
2022-11-30T00:24:58.380Z,5.80
2022-11-30T00:25:07.817Z,5.80
2022-11-30T00:25:17.226Z,5.70
2022-11-30T00:25:26.653Z,5.70
2022-11-30T00:25:36.049Z,5.70
2022-11-30T00:25:45.605Z,5.70
2022-11-30T00:25:55.055Z,5.70
2022-11-30T00:26:04.470Z,5.70
2022-11-30T00:26:14.006Z,5.70
2022-11-30T00:26:23.489Z,5.70
2022-11-30T00:26:33.003Z,5.70
2022-11-30T00:26:42.433Z,5.70
2022-11-30T00:26:51.856Z,5.70
2022-11-30T00:27:01.347Z,5.60
2022-11-30T00:27:10.772Z,5.70
2022-11-30T00:27:29.607Z,5.70
2022-11-30T00:27:39.032Z,5.60
2022-11-30T00:27:48.485Z,5.70
2022-11-30T00:27:57.875Z,5.60
2022-11-30T00:28:07.317Z,5.60
2022-11-30T00:28:16.782Z,5.60
2022-11-30T00:28:26.497Z,5.60
2022-11-30T00:28:35.923Z,5.60
2022-11-30T00:28:45.356Z,5.60
2022-11-30T00:28:54.765Z,5.70
2022-11-30T00:29:04.194Z,5.60
2022-11-30T00:29:13.647Z,5.60
2022-11-30T00:29:23.061Z,5.70
2022-11-30T00:29:32.508Z,5.70
2022-11-30T00:29:41.953Z,5.70
2022-11-30T00:29:51.456Z,5.70
2022-11-30T00:30:00.900Z,5.70
2022-11-30T00:30:10.439Z,5.60
2022-11-30T00:30:29.372Z,5.60
2022-11-30T00:30:38.758Z,5.60
2022-11-30T00:30:48.206Z,5.60
2022-11-30T00:30:57.624Z,5.60
2022-11-30T00:31:07.103Z,5.60
2022-11-30T00:31:16.541Z,5.60
2022-11-30T00:31:25.977Z,5.60
2022-11-30T00:31:35.399Z,5.50
2022-11-30T00:31:44.806Z,5.50
2022-11-30T00:31:54.248Z,5.50
2022-11-30T00:32:03.708Z,5.50
2022-11-30T00:32:13.179Z,5.40
2022-11-30T00:32:22.600Z,5.40
2022-11-30T00:32:32.039Z,5.40
2022-11-30T00:32:41.466Z,5.40
2022-11-30T00:32:50.931Z,5.30
2022-11-30T00:33:00.363Z,5.30
2022-11-30T00:33:19.231Z,5.30
2022-11-30T00:33:28.681Z,5.20
2022-11-30T00:33:38.115Z,5.20
2022-11-30T00:33:47.537Z,5.20
2022-11-30T00:33:56.957Z,5.20
2022-11-30T00:34:06.373Z,5.20
2022-11-30T00:34:15.806Z,5.10
2022-11-30T00:34:25.263Z,5.10
2022-11-30T00:34:34.690Z,5.10
2022-11-30T00:34:44.587Z,5.00
2022-11-30T00:34:53.618Z,5.00
2022-11-30T00:35:03.086Z,5.00
2022-11-30T00:35:12.524Z,4.90
2022-11-30T00:35:21.957Z,4.90
2022-11-30T00:35:31.472Z,4.90
2022-11-30T00:35:40.903Z,4.90
2022-11-30T00:35:50.313Z,4.80
2022-11-30T00:36:09.157Z,4.80
2022-11-30T00:36:18.575Z,4.80
2022-11-30T00:36:27.991Z,4.80
2022-11-30T00:36:37.371Z,4.70
2022-11-30T00:36:46.801Z,4.70
2022-11-30T00:36:56.231Z,4.70
2022-11-30T00:37:05.643Z,4.70
2022-11-30T00:37:15.058Z,4.70
2022-11-30T00:37:24.572Z,4.70
2022-11-30T00:37:33.980Z,4.70
2022-11-30T00:37:43.382Z,4.70
2022-11-30T00:37:52.794Z,4.70
2022-11-30T00:38:02.186Z,4.70
2022-11-30T00:38:11.575Z,4.70
2022-11-30T00:38:20.989Z,4.70
2022-11-30T00:38:30.495Z,4.70
2022-11-30T00:38:49.304Z,4.70
2022-11-30T00:38:58.725Z,4.70
2022-11-30T00:39:08.166Z,4.70
2022-11-30T00:39:17.558Z,4.70
2022-11-30T00:39:30.970Z,4.70
2022-11-30T00:39:36.338Z,4.70
2022-11-30T00:39:45.712Z,4.70
2022-11-30T00:39:55.159Z,4.80
2022-11-30T00:40:04.610Z,4.80
2022-11-30T00:40:14.148Z,4.80
2022-11-30T00:40:23.555Z,4.80
2022-11-30T00:40:33.091Z,4.80
2022-11-30T00:40:42.525Z,4.80
2022-11-30T00:40:51.924Z,4.80
2022-11-30T00:41:01.346Z,4.80
2022-11-30T00:41:10.785Z,4.80
2022-11-30T00:41:29.626Z,4.90
2022-11-30T00:41:39.057Z,4.90
2022-11-30T00:41:48.451Z,4.90
2022-11-30T00:41:57.857Z,4.90
2022-11-30T00:42:07.382Z,4.90
2022-11-30T00:42:16.818Z,4.90
2022-11-30T00:42:26.244Z,4.90
2022-11-30T00:42:35.712Z,5.00
2022-11-30T00:42:45.120Z,5.00
2022-11-30T00:42:54.545Z,5.00
2022-11-30T00:43:03.949Z,5.00
2022-11-30T00:43:16.211Z,5.00
2022-11-30T00:43:25.685Z,5.00
2022-11-30T00:43:35.151Z,5.00
2022-11-30T00:43:44.789Z,5.10
2022-11-30T00:43:54.208Z,5.10
2022-11-30T00:44:03.628Z,5.10
2022-11-30T00:44:13.038Z,5.10
2022-11-30T00:44:22.449Z,5.10
2022-11-30T00:44:31.906Z,5.10
2022-11-30T00:44:41.348Z,5.10
2022-11-30T00:44:50.898Z,5.10
2022-11-30T00:45:00.381Z,5.10
2022-11-30T00:45:19.320Z,5.20
2022-11-30T00:45:28.719Z,5.20
2022-11-30T00:45:38.135Z,5.20
2022-11-30T00:45:47.681Z,5.20
2022-11-30T00:45:57.262Z,5.20
2022-11-30T00:46:06.603Z,5.20
2022-11-30T00:46:15.979Z,5.20
2022-11-30T00:46:25.365Z,5.20
2022-11-30T00:46:34.819Z,5.20
2022-11-30T00:46:44.149Z,5.20
2022-11-30T00:46:53.568Z,5.20
2022-11-30T00:47:03.049Z,5.20
2022-11-30T00:47:12.470Z,5.20
2022-11-30T00:47:21.930Z,5.20
2022-11-30T00:47:31.350Z,5.30
2022-11-30T00:47:40.759Z,5.20
2022-11-30T00:47:59.646Z,5.30
2022-11-30T00:48:09.108Z,5.30
2022-11-30T00:48:18.550Z,5.20
2022-11-30T00:48:28.035Z,5.30
2022-11-30T00:48:37.487Z,5.20
2022-11-30T00:48:46.931Z,5.20
2022-11-30T00:48:56.369Z,5.30
2022-11-30T00:49:05.821Z,5.30
2022-11-30T00:49:15.251Z,5.30
2022-11-30T00:49:24.704Z,5.20
2022-11-30T00:49:34.192Z,5.30
2022-11-30T00:49:43.618Z,5.20
2022-11-30T00:49:53.027Z,5.20
2022-11-30T00:50:02.493Z,5.20
2022-11-30T00:50:11.926Z,5.20
2022-11-30T00:50:21.337Z,5.20
2022-11-30T00:50:30.809Z,5.20
2022-11-30T00:50:40.229Z,5.20
2022-11-30T00:50:59.117Z,5.20
2022-11-30T00:51:08.606Z,5.10
2022-11-30T00:51:18.045Z,5.10
2022-11-30T00:51:27.458Z,5.10
2022-11-30T00:51:36.893Z,5.10
2022-11-30T00:51:46.326Z,5.10
2022-11-30T00:51:55.918Z,5.10
2022-11-30T00:52:05.338Z,5.10
2022-11-30T00:52:14.757Z,5.00
2022-11-30T00:52:24.186Z,5.00
2022-11-30T00:52:33.631Z,5.00
2022-11-30T00:52:43.034Z,5.00
2022-11-30T00:52:52.520Z,4.90
2022-11-30T00:53:01.951Z,4.90
2022-11-30T00:53:11.427Z,4.90
2022-11-30T00:53:20.844Z,4.90
2022-11-30T00:53:30.308Z,4.80
2022-11-30T00:53:49.366Z,4.80
2022-11-30T00:53:58.897Z,4.70
2022-11-30T00:54:08.538Z,4.70
2022-11-30T00:54:17.959Z,4.70
2022-11-30T00:54:27.365Z,4.70
2022-11-30T00:54:36.818Z,4.70
2022-11-30T00:54:46.756Z,4.70
2022-11-30T00:54:55.937Z,4.60
2022-11-30T00:55:05.338Z,4.60
2022-11-30T00:55:14.753Z,4.60
2022-11-30T00:55:24.155Z,4.60
2022-11-30T00:55:33.667Z,4.60
2022-11-30T00:55:43.127Z,4.60
2022-11-30T00:55:52.548Z,4.60
2022-11-30T00:56:01.951Z,4.50
2022-11-30T00:56:11.407Z,4.50
2022-11-30T00:56:20.830Z,4.50
2022-11-30T00:56:30.249Z,4.50
2022-11-30T00:56:49.059Z,4.50
2022-11-30T00:56:58.478Z,4.50
2022-11-30T00:57:07.898Z,4.40
2022-11-30T00:57:17.323Z,4.40
2022-11-30T00:57:26.781Z,4.40
2022-11-30T00:57:36.196Z,4.40
2022-11-30T00:57:45.606Z,4.30
2022-11-30T00:57:55.071Z,4.30
2022-11-30T00:58:04.585Z,4.30
2022-11-30T00:58:13.989Z,4.30
2022-11-30T00:58:23.409Z,4.30
2022-11-30T00:58:32.898Z,4.30
2022-11-30T00:58:42.359Z,4.30
2022-11-30T00:58:51.837Z,4.20
2022-11-30T00:59:01.420Z,4.30
2022-11-30T00:59:10.847Z,4.20
2022-11-30T00:59:20.265Z,4.20
2022-11-30T00:59:39.151Z,4.20
2022-11-30T00:59:48.576Z,4.20
2022-11-30T00:59:58.026Z,4.20
2022-11-30T01:00:07.523Z,4.10
2022-11-30T01:00:16.964Z,4.10
2022-11-30T01:00:26.394Z,4.10
2022-11-30T01:00:35.854Z,4.10
2022-11-30T01:00:45.295Z,4.10
2022-11-30T01:00:54.839Z,4.10
2022-11-30T01:01:04.230Z,4.10
2022-11-30T01:01:13.690Z,4.10
2022-11-30T01:01:23.197Z,4.10
2022-11-30T01:01:32.666Z,4.10
2022-11-30T01:01:42.053Z,4.10
2022-11-30T01:01:51.479Z,4.00
2022-11-30T01:02:00.928Z,4.00
2022-11-30T01:02:10.329Z,4.00
2022-11-30T01:02:29.222Z,4.00
2022-11-30T01:02:38.636Z,4.00
2022-11-30T01:02:48.074Z,4.00
2022-11-30T01:02:57.394Z,4.00
2022-11-30T01:03:06.825Z,4.00
2022-11-30T01:03:16.235Z,4.00
2022-11-30T01:03:25.664Z,3.90
2022-11-30T01:03:35.110Z,4.00
2022-11-30T01:03:44.535Z,4.00
2022-11-30T01:03:54.184Z,4.00
2022-11-30T01:04:03.648Z,4.00
2022-11-30T01:04:13.069Z,4.00
2022-11-30T01:04:22.562Z,4.00
2022-11-30T01:04:31.960Z,4.00
2022-11-30T01:04:41.354Z,4.00
2022-11-30T01:04:50.760Z,4.00
2022-11-30T01:05:09.564Z,4.00
2022-11-30T01:05:19.011Z,4.10
2022-11-30T01:05:28.464Z,4.10
2022-11-30T01:05:37.920Z,4.10
2022-11-30T01:05:47.356Z,4.10
2022-11-30T01:05:56.847Z,4.20
2022-11-30T01:06:06.395Z,4.20
2022-11-30T01:06:15.821Z,4.20
2022-11-30T01:06:25.236Z,4.20
2022-11-30T01:06:34.665Z,4.20
2022-11-30T01:06:44.090Z,4.30
2022-11-30T01:06:53.523Z,4.30
2022-11-30T01:07:02.953Z,4.30
2022-11-30T01:07:12.374Z,4.30
2022-11-30T01:07:21.858Z,4.40
2022-11-30T01:07:31.332Z,4.40
2022-11-30T01:07:40.773Z,4.40
2022-11-30T01:07:50.283Z,4.40
2022-11-30T01:08:09.410Z,4.50
2022-11-30T01:08:18.700Z,4.50
2022-11-30T01:08:28.115Z,4.50
2022-11-30T01:08:37.563Z,4.50
2022-11-30T01:08:46.993Z,4.50
2022-11-30T01:08:56.441Z,4.60
2022-11-30T01:09:05.955Z,4.60
2022-11-30T01:09:15.418Z,4.60
2022-11-30T01:09:24.873Z,4.60
2022-11-30T01:09:34.318Z,4.60
2022-11-30T01:09:43.766Z,4.70
2022-11-30T01:09:53.192Z,4.70
2022-11-30T01:10:02.696Z,4.70
2022-11-30T01:10:12.080Z,4.70
2022-11-30T01:10:21.509Z,4.80
2022-11-30T01:10:30.923Z,4.80
2022-11-30T01:10:40.374Z,4.70
2022-11-30T01:10:59.256Z,4.80
2022-11-30T01:11:08.712Z,4.80
2022-11-30T01:11:18.206Z,4.80
2022-11-30T01:11:27.639Z,4.80
2022-11-30T01:11:37.113Z,4.80
2022-11-30T01:11:46.560Z,4.80
2022-11-30T01:11:55.999Z,4.80
2022-11-30T01:12:05.453Z,4.80
2022-11-30T01:12:14.931Z,4.80
2022-11-30T01:12:24.384Z,4.80
2022-11-30T01:12:33.840Z,4.80
2022-11-30T01:12:43.292Z,4.80
2022-11-30T01:12:52.863Z,4.80
2022-11-30T01:13:02.314Z,4.80
2022-11-30T01:13:11.753Z,4.80
2022-11-30T01:13:21.145Z,4.70
2022-11-30T01:13:30.626Z,4.70
2022-11-30T01:13:49.500Z,4.70
2022-11-30T01:13:58.947Z,4.70
2022-11-30T01:14:08.388Z,4.70
2022-11-30T01:14:17.805Z,4.70
2022-11-30T01:14:27.243Z,4.70
2022-11-30T01:14:36.658Z,4.60
2022-11-30T01:14:46.380Z,4.60
2022-11-30T01:14:55.464Z,4.60
2022-11-30T01:15:04.881Z,4.60
2022-11-30T01:15:14.319Z,4.60
2022-11-30T01:15:23.768Z,4.60
2022-11-30T01:15:33.293Z,4.50
2022-11-30T01:15:42.709Z,4.50
2022-11-30T01:15:52.147Z,4.50
2022-11-30T01:16:01.601Z,4.50
2022-11-30T01:16:11.196Z,4.50
2022-11-30T01:16:20.496Z,4.50
2022-11-30T01:16:39.267Z,4.50
2022-11-30T01:16:52.026Z,4.50
2022-11-30T01:16:58.346Z,4.40
2022-11-30T01:17:07.800Z,4.40
2022-11-30T01:17:17.226Z,4.40
2022-11-30T01:17:26.635Z,4.40
2022-11-30T01:17:36.103Z,4.30
2022-11-30T01:17:45.508Z,4.30
2022-11-30T01:17:55.038Z,4.30
2022-11-30T01:18:04.501Z,4.30
2022-11-30T01:18:13.957Z,4.30
2022-11-30T01:18:23.378Z,4.30
2022-11-30T01:18:32.792Z,4.30
2022-11-30T01:18:42.276Z,4.20
2022-11-30T01:18:51.685Z,4.20
2022-11-30T01:19:01.098Z,4.20
2022-11-30T01:19:10.660Z,4.20
2022-11-30T01:19:29.469Z,4.20
2022-11-30T01:19:38.881Z,4.20
2022-11-30T01:19:48.297Z,4.20
2022-11-30T01:19:57.702Z,4.10
2022-11-30T01:20:07.115Z,4.20
2022-11-30T01:20:16.540Z,4.10
2022-11-30T01:20:25.977Z,4.10
2022-11-30T01:20:35.423Z,4.10
2022-11-30T01:20:44.845Z,4.10
2022-11-30T01:20:54.303Z,4.10
2022-11-30T01:21:03.728Z,4.10
2022-11-30T01:21:13.153Z,4.10
2022-11-30T01:21:22.565Z,4.10
2022-11-30T01:21:31.990Z,4.00
2022-11-30T01:21:41.446Z,4.00
2022-11-30T01:21:50.891Z,4.00
2022-11-30T01:22:00.365Z,4.00
2022-11-30T01:22:19.198Z,4.00
2022-11-30T01:22:28.637Z,4.00
2022-11-30T01:22:38.056Z,4.00
2022-11-30T01:22:47.527Z,4.00
2022-11-30T01:22:57.000Z,4.00
2022-11-30T01:23:07.500Z,4.00
2022-11-30T01:23:16.940Z,3.90
2022-11-30T01:23:26.375Z,3.90
2022-11-30T01:23:35.792Z,3.90
2022-11-30T01:23:45.284Z,3.90
2022-11-30T01:23:54.711Z,3.90
2022-11-30T01:24:04.132Z,3.90
2022-11-30T01:24:13.560Z,3.90
2022-11-30T01:24:23.011Z,3.90
2022-11-30T01:24:32.436Z,3.90
2022-11-30T01:24:41.890Z,3.90
2022-11-30T01:24:51.377Z,3.90
2022-11-30T01:25:00.834Z,3.90
2022-11-30T01:25:10.366Z,3.90
2022-11-30T01:25:29.206Z,3.90
2022-11-30T01:25:38.648Z,3.90
2022-11-30T01:25:48.093Z,3.90
2022-11-30T01:25:57.553Z,3.90
2022-11-30T01:26:07.028Z,3.90
2022-11-30T01:26:16.465Z,3.90
2022-11-30T01:26:25.878Z,3.90
2022-11-30T01:26:35.312Z,3.90
2022-11-30T01:26:44.721Z,3.90
2022-11-30T01:26:54.199Z,3.90
2022-11-30T01:27:03.623Z,3.90
2022-11-30T01:27:13.080Z,3.90
2022-11-30T01:27:22.502Z,3.90
2022-11-30T01:27:31.971Z,3.90
2022-11-30T01:27:41.461Z,3.90
2022-11-30T01:27:50.911Z,3.90
2022-11-30T01:28:00.332Z,3.90
2022-11-30T01:28:19.236Z,4.00
2022-11-30T01:28:28.659Z,4.00
2022-11-30T01:28:38.133Z,4.00
2022-11-30T01:28:47.592Z,4.00
2022-11-30T01:28:57.000Z,4.00
2022-11-30T01:29:06.459Z,4.00
2022-11-30T01:29:15.860Z,4.10
2022-11-30T01:29:25.263Z,4.10
2022-11-30T01:29:34.713Z,4.10
2022-11-30T01:29:44.166Z,4.10
2022-11-30T01:29:53.593Z,4.20
2022-11-30T01:30:03.056Z,4.20
2022-11-30T01:30:12.605Z,4.30
2022-11-30T01:30:22.021Z,4.20
2022-11-30T01:30:31.540Z,4.30
2022-11-30T01:30:41.099Z,4.30
2022-11-30T01:30:50.439Z,4.30
2022-11-30T01:31:09.401Z,4.40
2022-11-30T01:31:18.828Z,4.40
2022-11-30T01:31:28.165Z,4.40
2022-11-30T01:31:37.645Z,4.40
2022-11-30T01:31:47.055Z,4.40
2022-11-30T01:31:56.482Z,4.50
2022-11-30T01:32:05.875Z,4.50
2022-11-30T01:32:15.264Z,4.50
2022-11-30T01:32:24.671Z,4.50
2022-11-30T01:32:34.093Z,4.60
2022-11-30T01:32:43.536Z,4.60
2022-11-30T01:32:53.019Z,4.60
2022-11-30T01:33:02.421Z,4.60
2022-11-30T01:33:11.838Z,4.60
2022-11-30T01:33:21.282Z,4.70
2022-11-30T01:33:30.697Z,4.70
2022-11-30T01:33:49.569Z,4.70
2022-11-30T01:33:59.161Z,4.70
2022-11-30T01:34:08.719Z,4.70
2022-11-30T01:34:18.146Z,4.80
2022-11-30T01:34:27.543Z,4.80
2022-11-30T01:34:36.996Z,4.80
2022-11-30T01:34:46.717Z,4.80
2022-11-30T01:34:55.819Z,4.80
2022-11-30T01:35:05.239Z,4.80
2022-11-30T01:35:14.676Z,4.90
2022-11-30T01:35:24.096Z,4.90
2022-11-30T01:35:33.521Z,4.90
2022-11-30T01:35:42.951Z,4.90
2022-11-30T01:35:52.368Z,4.90
2022-11-30T01:36:01.862Z,5.00
2022-11-30T01:36:11.312Z,5.00
2022-11-30T01:36:20.742Z,5.00
2022-11-30T01:36:39.565Z,5.00
2022-11-30T01:36:49.008Z,5.00
2022-11-30T01:36:58.417Z,5.00
2022-11-30T01:37:07.840Z,5.10
2022-11-30T01:37:17.297Z,5.10
2022-11-30T01:37:26.777Z,5.10
2022-11-30T01:37:36.203Z,5.10
2022-11-30T01:37:45.653Z,5.10
2022-11-30T01:37:55.091Z,5.10
2022-11-30T01:38:04.528Z,5.10
2022-11-30T01:38:13.922Z,5.10
2022-11-30T01:38:23.357Z,5.10
2022-11-30T01:38:32.826Z,5.10
2022-11-30T01:38:42.238Z,5.10
2022-11-30T01:38:51.698Z,5.10
2022-11-30T01:39:01.124Z,5.10
2022-11-30T01:39:10.569Z,5.10
2022-11-30T01:39:29.418Z,5.20
2022-11-30T01:39:38.851Z,5.20
2022-11-30T01:39:48.294Z,5.20
2022-11-30T01:39:57.710Z,5.20
2022-11-30T01:40:07.151Z,5.20
2022-11-30T01:40:16.593Z,5.30
2022-11-30T01:40:26.023Z,5.20
2022-11-30T01:40:35.436Z,5.20
2022-11-30T01:40:44.900Z,5.30
2022-11-30T01:40:54.325Z,5.30
2022-11-30T01:41:03.727Z,5.30
2022-11-30T01:41:13.123Z,5.30
2022-11-30T01:41:22.536Z,5.30
2022-11-30T01:41:31.963Z,5.30
2022-11-30T01:41:41.417Z,5.30
2022-11-30T01:41:50.813Z,5.30
2022-11-30T01:42:00.249Z,5.30
2022-11-30T01:42:19.169Z,5.30
2022-11-30T01:42:28.488Z,5.30
2022-11-30T01:42:38.040Z,5.30
2022-11-30T01:42:47.394Z,5.30
2022-11-30T01:42:56.808Z,5.40
2022-11-30T01:43:06.213Z,5.40
2022-11-30T01:43:15.636Z,5.40
2022-11-30T01:43:25.110Z,5.40
2022-11-30T01:43:34.520Z,5.40
2022-11-30T01:43:43.981Z,5.40
2022-11-30T01:43:53.438Z,5.40
2022-11-30T01:44:02.842Z,5.40
2022-11-30T01:44:15.540Z,5.40
2022-11-30T01:44:21.734Z,5.40
2022-11-30T01:44:31.220Z,5.40
2022-11-30T01:44:40.645Z,5.40
2022-11-30T01:44:59.710Z,5.40
2022-11-30T01:45:09.256Z,5.50
2022-11-30T01:45:18.795Z,5.50
2022-11-30T01:45:28.218Z,5.50
2022-11-30T01:45:37.630Z,5.50
2022-11-30T01:45:47.098Z,5.50
2022-11-30T01:45:56.532Z,5.50
2022-11-30T01:46:06.008Z,5.50
2022-11-30T01:46:15.351Z,5.50
2022-11-30T01:46:24.928Z,5.50
2022-11-30T01:46:34.271Z,5.50
2022-11-30T01:46:43.743Z,5.50
2022-11-30T01:46:53.161Z,5.50
2022-11-30T01:47:02.574Z,5.50
2022-11-30T01:47:12.015Z,5.50
2022-11-30T01:47:21.444Z,5.50
2022-11-30T01:47:30.868Z,5.50
2022-11-30T01:47:40.456Z,5.50
2022-11-30T01:47:59.296Z,5.50
2022-11-30T01:48:08.731Z,5.50
2022-11-30T01:48:18.245Z,5.50
2022-11-30T01:48:28.107Z,5.50
2022-11-30T01:48:37.570Z,5.50
2022-11-30T01:48:47.009Z,5.50
2022-11-30T01:48:56.536Z,5.50
2022-11-30T01:49:06.280Z,5.50
2022-11-30T01:49:15.692Z,5.50
2022-11-30T01:49:25.114Z,5.50
2022-11-30T01:49:34.584Z,5.50
2022-11-30T01:49:43.995Z,5.50
2022-11-30T01:49:53.411Z,5.50
2022-11-30T01:50:02.837Z,5.50
2022-11-30T01:50:12.302Z,5.50
2022-11-30T01:50:21.710Z,5.50
2022-11-30T01:50:31.127Z,5.50
2022-11-30T01:50:40.550Z,5.50
2022-11-30T01:50:59.399Z,5.50
2022-11-30T01:51:08.894Z,5.50
2022-11-30T01:51:18.344Z,5.50
2022-11-30T01:51:27.746Z,5.50
2022-11-30T01:51:37.174Z,5.50
2022-11-30T01:51:46.597Z,5.50
2022-11-30T01:51:56.007Z,5.50
2022-11-30T01:52:05.480Z,5.50
2022-11-30T01:52:14.965Z,5.50
2022-11-30T01:52:24.368Z,5.50
2022-11-30T01:52:33.855Z,5.50
2022-11-30T01:52:43.255Z,5.50
2022-11-30T01:52:52.685Z,5.50
2022-11-30T01:53:02.088Z,5.50
2022-11-30T01:53:11.644Z,5.50
2022-11-30T01:53:21.085Z,5.50
2022-11-30T01:53:30.500Z,5.50
2022-11-30T01:53:49.279Z,5.50
2022-11-30T01:53:58.724Z,5.50
2022-11-30T01:54:08.188Z,5.50
2022-11-30T01:54:17.614Z,5.50
2022-11-30T01:54:27.064Z,5.50
2022-11-30T01:54:36.552Z,5.50
2022-11-30T01:54:46.458Z,5.50
2022-11-30T01:54:55.427Z,5.50
2022-11-30T01:55:04.960Z,5.50
2022-11-30T01:55:14.320Z,5.50
2022-11-30T01:55:23.742Z,5.50
2022-11-30T01:55:33.141Z,5.60
2022-11-30T01:55:42.563Z,5.60
2022-11-30T01:55:51.981Z,5.50
2022-11-30T01:56:01.444Z,5.50
2022-11-30T01:56:10.876Z,5.60
2022-11-30T01:56:20.348Z,5.60
2022-11-30T01:56:39.189Z,5.70
2022-11-30T01:56:48.611Z,5.60
2022-11-30T01:56:58.038Z,5.60
2022-11-30T01:57:07.510Z,5.60
2022-11-30T01:57:16.925Z,5.60
2022-11-30T01:57:26.326Z,5.60
2022-11-30T01:57:35.759Z,5.60
2022-11-30T01:57:45.238Z,5.60
2022-11-30T01:57:54.721Z,5.60
2022-11-30T01:58:04.117Z,5.60
2022-11-30T01:58:13.525Z,5.60
2022-11-30T01:58:22.980Z,5.60
2022-11-30T01:58:32.409Z,5.60
2022-11-30T01:58:41.843Z,5.60
2022-11-30T01:58:51.373Z,5.60
2022-11-30T01:59:00.813Z,5.60
2022-11-30T01:59:11.271Z,5.60
2022-11-30T01:59:20.694Z,5.60
2022-11-30T01:59:39.555Z,5.50
2022-11-30T01:59:48.981Z,5.50
2022-11-30T01:59:58.399Z,5.50
2022-11-30T02:00:07.945Z,5.50
2022-11-30T02:00:17.353Z,5.50
2022-11-30T02:00:26.791Z,5.50
2022-11-30T02:00:36.247Z,5.40
2022-11-30T02:00:45.683Z,5.40
2022-11-30T02:00:55.241Z,5.40
2022-11-30T02:01:04.628Z,5.40
2022-11-30T02:01:14.093Z,5.40
2022-11-30T02:01:23.476Z,5.40
2022-11-30T02:01:32.901Z,5.30
2022-11-30T02:01:42.349Z,5.30
2022-11-30T02:01:51.732Z,5.30
2022-11-30T02:02:02.329Z,5.30
2022-11-30T02:02:11.783Z,5.30
2022-11-30T02:02:21.237Z,5.30
2022-11-30T02:02:30.680Z,5.20
2022-11-30T02:02:49.538Z,5.20
2022-11-30T02:02:58.963Z,5.20
2022-11-30T02:03:08.404Z,5.10
2022-11-30T02:03:17.909Z,5.10
2022-11-30T02:03:27.343Z,5.10
2022-11-30T02:03:36.756Z,5.10
2022-11-30T02:03:46.166Z,5.00
2022-11-30T02:03:55.600Z,5.00
2022-11-30T02:04:05.058Z,5.00
2022-11-30T02:04:14.548Z,5.00
2022-11-30T02:04:23.976Z,5.00
2022-11-30T02:04:33.373Z,5.00
2022-11-30T02:04:42.794Z,4.90
2022-11-30T02:04:52.228Z,4.90
2022-11-30T02:05:01.633Z,4.90
2022-11-30T02:05:11.058Z,4.90
2022-11-30T02:05:20.453Z,4.80
2022-11-30T02:05:39.386Z,4.80
2022-11-30T02:05:48.899Z,4.80
2022-11-30T02:05:58.345Z,4.80
2022-11-30T02:06:07.851Z,4.80
2022-11-30T02:06:17.287Z,4.70
2022-11-30T02:06:26.711Z,4.70
2022-11-30T02:06:36.291Z,4.70
2022-11-30T02:06:45.706Z,4.70
2022-11-30T02:06:55.170Z,4.70
2022-11-30T02:07:04.678Z,4.70
2022-11-30T02:07:14.138Z,4.70
2022-11-30T02:07:23.684Z,4.60
2022-11-30T02:07:33.168Z,4.60
2022-11-30T02:07:42.586Z,4.60
2022-11-30T02:07:51.952Z,4.60
2022-11-30T02:08:02.537Z,4.60
2022-11-30T02:08:11.928Z,4.60
2022-11-30T02:08:21.350Z,4.60
2022-11-30T02:08:30.825Z,4.60
2022-11-30T02:08:49.590Z,4.50
2022-11-30T02:08:59.031Z,4.50
2022-11-30T02:09:08.607Z,4.50
2022-11-30T02:09:18.053Z,4.50
2022-11-30T02:09:27.473Z,4.40
2022-11-30T02:09:36.911Z,4.50
2022-11-30T02:09:46.327Z,4.40
2022-11-30T02:09:55.798Z,4.40
2022-11-30T02:10:05.220Z,4.40
2022-11-30T02:10:14.638Z,4.40
2022-11-30T02:10:24.060Z,4.40
2022-11-30T02:10:33.459Z,4.40
2022-11-30T02:10:43.071Z,4.40
2022-11-30T02:10:52.456Z,4.40
2022-11-30T02:11:01.852Z,4.40
2022-11-30T02:11:11.311Z,4.40
2022-11-30T02:11:20.726Z,4.30
2022-11-30T02:11:39.555Z,4.30
2022-11-30T02:11:48.958Z,4.40
2022-11-30T02:11:58.402Z,4.30
2022-11-30T02:12:07.841Z,4.30
2022-11-30T02:12:17.278Z,4.30
2022-11-30T02:12:26.708Z,4.30
2022-11-30T02:12:36.137Z,4.30
2022-11-30T02:12:45.559Z,4.30
2022-11-30T02:12:55.042Z,4.30
2022-11-30T02:13:04.569Z,4.30